createdAt,value
2018-04-17T00:00:57.386Z,80.10
2018-04-17T00:02:03.923Z,80.14
2018-04-17T00:03:09.694Z,80.20
2018-04-17T00:04:16.233Z,80.25
2018-04-17T00:05:22.024Z,80.23
2018-04-17T00:06:27.798Z,80.23
2018-04-17T00:07:33.569Z,80.24
2018-04-17T00:08:39.339Z,80.30
2018-04-17T00:09:45.099Z,80.35
2018-04-17T00:10:50.903Z,80.49
2018-04-17T00:11:57.450Z,80.54
2018-04-17T00:13:03.203Z,80.53
2018-04-17T00:14:08.979Z,80.66
2018-04-17T00:15:14.765Z,80.72
2018-04-17T00:16:20.561Z,80.66
2018-04-17T00:17:26.326Z,80.67
2018-04-17T00:18:32.096Z,80.71
2018-04-17T00:19:37.862Z,80.67
2018-04-17T00:20:44.392Z,80.74
2018-04-17T00:21:50.249Z,80.73
2018-04-17T00:22:56.043Z,80.79
2018-04-17T00:24:01.671Z,80.87
2018-04-17T00:25:07.439Z,80.85
2018-04-17T00:26:13.263Z,80.85
2018-04-17T00:27:18.719Z,80.83
2018-04-17T00:28:25.804Z,80.80
2018-04-17T00:29:31.580Z,80.80
2018-04-17T00:30:38.136Z,80.80
2018-04-17T00:31:44.696Z,80.79
2018-04-17T00:32:51.339Z,80.75
2018-04-17T00:33:57.099Z,80.75
2018-04-17T00:35:03.619Z,80.76
2018-04-17T00:36:09.383Z,80.86
2018-04-17T00:37:15.167Z,80.82
2018-04-17T00:38:20.955Z,80.84
2018-04-17T00:39:26.730Z,80.85
2018-04-17T00:40:33.252Z,80.95
2018-04-17T00:41:39.018Z,80.93
2018-04-17T00:42:45.555Z,81.04
2018-04-17T00:43:51.151Z,80.98
2018-04-17T00:44:56.918Z,80.98
2018-04-17T00:46:02.894Z,81.00
2018-04-17T00:47:08.664Z,81.01
2018-04-17T00:48:15.194Z,81.06
2018-04-17T00:49:22.508Z,81.17
2018-04-17T00:50:28.302Z,81.24
2018-04-17T00:51:34.071Z,81.31
2018-04-17T00:52:40.606Z,81.37
2018-04-17T00:53:54.058Z,81.34
2018-04-17T00:55:00.620Z,81.43
2018-04-17T00:56:07.147Z,81.48
2018-04-17T00:57:12.915Z,81.55
2018-04-17T00:58:18.689Z,81.59
2018-04-17T00:59:24.459Z,81.65
2018-04-17T01:00:30.247Z,81.65
2018-04-17T01:01:36.913Z,81.65
2018-04-17T01:02:43.460Z,81.64
2018-04-17T01:03:49.240Z,81.64
2018-04-17T01:04:55.004Z,81.65
2018-04-17T01:06:00.825Z,81.72
2018-04-17T01:07:06.588Z,81.77
2018-04-17T01:08:12.151Z,81.77
2018-04-17T01:09:17.976Z,81.77
2018-04-17T01:10:23.749Z,81.94
2018-04-17T01:11:29.543Z,81.92
2018-04-17T01:12:35.435Z,81.94
2018-04-17T01:13:41.214Z,81.93
2018-04-17T01:14:46.972Z,81.92
2018-04-17T01:15:52.747Z,81.93
2018-04-17T01:16:58.545Z,81.95
2018-04-17T01:18:04.319Z,81.98
2018-04-17T01:19:10.088Z,82.02
2018-04-17T01:20:15.883Z,82.07
2018-04-17T01:21:21.670Z,82.22
2018-04-17T01:22:27.258Z,82.37
2018-04-17T01:23:33.029Z,82.36
2018-04-17T01:24:38.787Z,82.53
2018-04-17T01:25:44.569Z,82.64
2018-04-17T01:26:50.448Z,82.87
2018-04-17T01:27:56.244Z,83.02
2018-04-17T01:29:02.011Z,83.02
2018-04-17T01:30:07.810Z,82.99
2018-04-17T01:31:14.401Z,83.05
2018-04-17T01:32:20.168Z,83.05
2018-04-17T01:33:25.759Z,83.05
2018-04-17T01:34:32.299Z,83.08
2018-04-17T01:35:38.069Z,83.21
2018-04-17T01:36:43.923Z,83.24
2018-04-17T01:37:49.687Z,83.20
2018-04-17T01:38:55.513Z,83.26
2018-04-17T01:40:01.299Z,83.29
2018-04-17T01:41:07.079Z,83.27
2018-04-17T01:42:13.620Z,83.41
2018-04-17T01:43:20.154Z,83.50
2018-04-17T01:44:25.951Z,83.48
2018-04-17T01:45:31.739Z,83.45
2018-04-17T01:46:37.512Z,83.47
2018-04-17T01:47:44.047Z,83.48
2018-04-17T01:48:49.807Z,83.46
2018-04-17T01:49:56.379Z,83.54
2018-04-17T01:51:02.905Z,83.58
2018-04-17T01:52:08.669Z,83.65
2018-04-17T01:53:14.979Z,83.63
2018-04-17T01:54:20.771Z,83.65
2018-04-17T01:55:26.552Z,83.71
2018-04-17T01:56:32.323Z,83.81
2018-04-17T01:57:38.103Z,83.78
2018-04-17T01:58:44.652Z,83.81
2018-04-17T01:59:50.454Z,83.78
2018-04-17T02:00:56.243Z,83.81
2018-04-17T02:02:02.783Z,83.81
2018-04-17T02:03:08.880Z,83.84
2018-04-17T02:04:14.820Z,83.84
2018-04-17T02:05:20.669Z,83.91
2018-04-17T02:06:26.499Z,83.96
2018-04-17T02:07:33.027Z,83.99
2018-04-17T02:08:38.795Z,84.01
2018-04-17T02:09:45.327Z,84.12
2018-04-17T02:10:51.086Z,84.13
2018-04-17T02:11:57.657Z,84.18
2018-04-17T02:13:04.186Z,84.18
2018-04-17T02:14:09.955Z,84.18
2018-04-17T02:15:16.587Z,84.20
2018-04-17T02:16:23.122Z,84.25
2018-04-17T02:17:28.915Z,84.26
2018-04-17T02:18:35.451Z,84.31
2018-04-17T02:19:41.222Z,84.37
2018-04-17T02:20:47.754Z,84.40
2018-04-17T02:21:53.526Z,84.42
2018-04-17T02:23:00.084Z,84.44
2018-04-17T02:24:06.633Z,84.45
2018-04-17T02:25:13.176Z,84.48
2018-04-17T02:26:18.943Z,84.51
2018-04-17T02:27:25.479Z,84.60
2018-04-17T02:28:30.952Z,84.61
2018-04-17T02:29:36.719Z,84.72
2018-04-17T02:30:42.504Z,84.71
2018-04-17T02:31:48.274Z,84.81
2018-04-17T02:32:55.013Z,84.95
2018-04-17T02:34:00.808Z,85.04
2018-04-17T02:35:06.592Z,85.12
2018-04-17T02:36:12.353Z,85.11
2018-04-17T02:37:18.907Z,85.20
2018-04-17T02:38:24.686Z,85.22
2018-04-17T02:39:30.469Z,85.10
2018-04-17T02:40:36.239Z,85.14
2018-04-17T02:41:42.783Z,85.22
2018-04-17T02:42:48.605Z,85.30
2018-04-17T02:43:54.383Z,85.30
2018-04-17T02:45:00.944Z,85.31
2018-04-17T02:46:07.487Z,85.29
2018-04-17T02:47:13.260Z,85.27
2018-04-17T02:48:19.026Z,85.42
2018-04-17T02:49:24.794Z,85.49
2018-04-17T02:50:30.371Z,85.60
2018-04-17T02:51:36.908Z,85.51
2018-04-17T02:52:42.683Z,85.48
2018-04-17T02:53:48.464Z,85.45
2018-04-17T02:54:54.009Z,85.53
2018-04-17T02:55:59.805Z,85.43
2018-04-17T02:57:05.585Z,85.34
2018-04-17T02:58:11.347Z,85.34
2018-04-17T02:59:17.113Z,85.32
2018-04-17T03:00:23.806Z,85.32
2018-04-17T03:01:29.646Z,85.41
2018-04-17T03:02:35.425Z,85.45
2018-04-17T03:03:41.195Z,85.48
2018-04-17T03:04:47.775Z,85.49
2018-04-17T03:05:54.323Z,85.52
2018-04-17T03:07:00.920Z,85.57
2018-04-17T03:08:06.701Z,85.48
2018-04-17T03:09:12.475Z,85.45
2018-04-17T03:10:19.052Z,85.38
2018-04-17T03:11:24.846Z,85.25
2018-04-17T03:12:30.665Z,85.16
2018-04-17T03:13:36.471Z,85.11
2018-04-17T03:14:42.326Z,85.13
2018-04-17T03:15:48.100Z,85.09
2018-04-17T03:16:53.904Z,85.14
2018-04-17T03:17:59.701Z,85.15
2018-04-17T03:19:05.475Z,85.17
2018-04-17T03:20:12.029Z,85.27
2018-04-17T03:21:18.574Z,85.25
2018-04-17T03:22:25.851Z,85.18
2018-04-17T03:23:31.646Z,85.17
2018-04-17T03:24:37.420Z,85.17
2018-04-17T03:25:44.703Z,85.21
2018-04-17T03:26:50.475Z,85.17
2018-04-17T03:27:57.014Z,85.16
2018-04-17T03:29:02.840Z,85.14
2018-04-17T03:30:08.610Z,85.13
2018-04-17T03:31:15.150Z,85.10
2018-04-17T03:32:20.923Z,85.22
2018-04-17T03:33:27.247Z,85.22
2018-04-17T03:34:32.802Z,85.24
2018-04-17T03:35:39.347Z,85.20
2018-04-17T03:36:45.107Z,85.17
2018-04-17T03:37:51.899Z,85.15
2018-04-17T03:38:57.671Z,85.18
2018-04-17T03:40:03.471Z,85.23
2018-04-17T03:41:10.003Z,85.26
2018-04-17T03:42:15.771Z,85.20
2018-04-17T03:43:22.305Z,85.14
2018-04-17T03:44:28.075Z,85.18
2018-04-17T03:45:33.867Z,85.13
2018-04-17T03:46:39.294Z,85.08
2018-04-17T03:47:45.066Z,85.05
2018-04-17T03:48:50.834Z,85.08
2018-04-17T03:49:56.626Z,85.06
2018-04-17T03:51:02.428Z,85.04
2018-04-17T03:52:08.197Z,85.01
2018-04-17T03:53:13.983Z,85.00
2018-04-17T03:54:19.751Z,84.97
2018-04-17T03:55:25.577Z,85.00
2018-04-17T03:56:32.131Z,84.97
2018-04-17T03:57:38.677Z,84.95
2018-04-17T03:58:46.053Z,84.96
2018-04-17T03:59:51.819Z,84.92
2018-04-17T04:00:58.402Z,84.91
2018-04-17T04:02:04.299Z,84.85
2018-04-17T04:03:10.114Z,84.84
2018-04-17T04:04:15.944Z,84.85
2018-04-17T04:05:21.750Z,84.83
2018-04-17T04:06:27.561Z,84.81
2018-04-17T04:07:33.364Z,84.81
2018-04-17T04:08:39.134Z,84.80
2018-04-17T04:09:45.183Z,84.79
2018-04-17T04:10:50.948Z,84.76
2018-04-17T04:11:56.734Z,84.72
2018-04-17T04:13:02.519Z,84.67
2018-04-17T04:14:08.282Z,84.60
2018-04-17T04:15:14.059Z,84.59
2018-04-17T04:16:36.565Z,84.51
2018-04-17T04:19:41.956Z,84.37
2018-04-17T04:21:04.687Z,84.39
2018-04-17T04:22:27.231Z,84.45
2018-04-17T04:23:49.929Z,84.59
2018-04-17T04:26:47.003Z,84.76
2018-04-17T04:27:53.916Z,84.79
2018-04-17T04:28:59.731Z,84.72
2018-04-17T04:30:04.891Z,84.76
2018-04-17T04:31:10.663Z,84.68
2018-04-17T04:32:16.979Z,84.57
2018-04-17T04:33:22.742Z,84.45
2018-04-17T04:34:28.306Z,84.36
2018-04-17T04:35:34.838Z,84.29
2018-04-17T04:36:40.612Z,84.22
2018-04-17T04:37:46.472Z,84.15
2018-04-17T04:38:52.260Z,84.09
2018-04-17T04:39:58.048Z,84.00
2018-04-17T04:41:03.825Z,83.92
2018-04-17T04:42:09.575Z,83.85
2018-04-17T04:43:15.346Z,83.76
2018-04-17T04:44:21.871Z,83.71
2018-04-17T04:45:27.654Z,83.65
2018-04-17T04:46:34.221Z,83.56
2018-04-17T04:47:40.744Z,83.46
2018-04-17T04:48:47.288Z,83.39
2018-04-17T04:49:53.057Z,83.33
2018-04-17T04:50:58.639Z,83.25
2018-04-17T04:52:04.428Z,83.19
2018-04-17T04:53:11.247Z,83.12
2018-04-17T04:54:17.021Z,83.08
2018-04-17T04:55:22.808Z,82.98
2018-04-17T04:56:29.387Z,82.84
2018-04-17T04:57:35.151Z,82.74
2018-04-17T04:58:40.939Z,82.64
2018-04-17T04:59:46.701Z,82.53
2018-04-17T05:00:53.233Z,82.42
2018-04-17T05:01:59.043Z,82.31
2018-04-17T05:03:04.859Z,82.15
2018-04-17T05:04:10.656Z,82.00
2018-04-17T05:05:17.948Z,81.87
2018-04-17T05:06:24.494Z,81.75
2018-04-17T05:07:31.199Z,81.61
2018-04-17T05:08:36.988Z,81.46
2018-04-17T05:09:42.814Z,81.37
2018-04-17T05:10:48.593Z,81.26
2018-04-17T05:11:55.193Z,81.15
2018-04-17T05:13:01.887Z,81.08
2018-04-17T05:14:07.496Z,80.97
2018-04-17T05:15:13.278Z,80.82
2018-04-17T05:16:18.873Z,80.74
2018-04-17T05:17:24.645Z,80.66
2018-04-17T05:18:30.498Z,80.57
2018-04-17T05:19:36.504Z,80.46
2018-04-17T05:20:42.280Z,80.31
2018-04-17T05:21:48.060Z,80.17
2018-04-17T05:22:54.998Z,79.99
2018-04-17T05:24:00.803Z,79.83
2018-04-17T05:25:06.603Z,79.58
2018-04-17T05:26:12.683Z,79.35
2018-04-17T05:27:19.224Z,79.09
2018-04-17T05:28:24.997Z,78.79
2018-04-17T05:29:31.592Z,78.51
2018-04-17T05:30:38.173Z,77.99
2018-04-17T05:31:44.801Z,77.68
2018-04-17T05:32:50.559Z,77.32
2018-04-17T05:33:56.314Z,76.92
2018-04-17T05:35:02.104Z,76.46
2018-04-17T05:36:08.657Z,76.15
2018-04-17T05:37:15.184Z,75.91
2018-04-17T05:38:20.962Z,75.68
2018-04-17T05:39:27.492Z,75.57
2018-04-17T05:40:33.304Z,75.28
2018-04-17T05:41:39.071Z,74.98
2018-04-17T05:42:44.843Z,74.77
2018-04-17T05:43:50.600Z,74.47
2018-04-17T05:44:57.132Z,74.30
2018-04-17T05:46:02.922Z,74.08
2018-04-17T05:47:08.711Z,73.87
2018-04-17T05:48:14.484Z,73.46
2018-04-17T05:49:20.678Z,73.08
2018-04-17T05:50:26.436Z,72.73
2018-04-17T05:51:32.224Z,72.43
2018-04-17T05:52:37.995Z,72.29
2018-04-17T05:53:43.759Z,72.06
2018-04-17T05:54:49.540Z,72.06
2018-04-17T05:55:56.123Z,71.94
2018-04-17T05:57:02.112Z,71.85
2018-04-17T05:58:07.888Z,71.81
2018-04-17T05:59:14.503Z,71.79
2018-04-17T06:00:20.260Z,71.76
2018-04-17T06:01:25.796Z,71.73
2018-04-17T06:02:31.054Z,71.69
2018-04-17T06:03:37.623Z,71.61
2018-04-17T06:04:43.404Z,71.55
2018-04-17T06:05:49.695Z,71.54
2018-04-17T06:06:55.461Z,71.53
2018-04-17T06:08:02.042Z,71.48
2018-04-17T06:09:07.166Z,71.45
2018-04-17T06:10:12.951Z,71.40
2018-04-17T06:11:19.475Z,71.34
2018-04-17T06:12:25.243Z,71.21
2018-04-17T06:13:31.380Z,71.02
2018-04-17T06:14:36.922Z,70.81
2018-04-17T06:15:42.697Z,70.60
2018-04-17T06:16:48.465Z,70.35
2018-04-17T06:17:54.999Z,70.01
2018-04-17T06:19:02.295Z,69.71
2018-04-17T06:20:08.819Z,69.49
2018-04-17T06:21:14.591Z,69.28
2018-04-17T06:22:21.118Z,68.94
2018-04-17T06:23:26.893Z,68.81
2018-04-17T06:24:33.464Z,68.39
2018-04-17T06:25:40.039Z,68.14
2018-04-17T06:26:45.812Z,67.99
2018-04-17T06:27:51.591Z,67.82
2018-04-17T06:28:58.130Z,67.51
2018-04-17T06:30:03.687Z,67.12
2018-04-17T06:31:10.227Z,66.78
2018-04-17T06:32:16.002Z,66.58
2018-04-17T06:33:22.538Z,66.57
2018-04-17T06:34:29.813Z,66.56
2018-04-17T06:35:35.651Z,66.33
2018-04-17T06:36:42.178Z,66.29
2018-04-17T06:37:47.959Z,66.22
2018-04-17T06:38:53.739Z,66.01
2018-04-17T06:39:59.505Z,65.78
2018-04-17T06:41:05.299Z,65.58
2018-04-17T06:42:11.888Z,65.34
2018-04-17T06:43:17.732Z,65.09
2018-04-17T06:44:23.708Z,64.72
2018-04-17T06:45:29.481Z,64.20
2018-04-17T06:46:35.365Z,63.84
2018-04-17T06:47:41.219Z,63.57
2018-04-17T06:48:47.133Z,63.39
2018-04-17T06:49:53.671Z,63.07
2018-04-17T06:50:59.455Z,62.93
2018-04-17T06:52:05.230Z,62.59
2018-04-17T06:53:11.040Z,62.36
2018-04-17T06:54:17.581Z,62.15
2018-04-17T06:55:24.119Z,61.64
2018-04-17T06:56:29.900Z,61.13
2018-04-17T06:57:36.455Z,60.06
2018-04-17T06:58:42.216Z,59.27
2018-04-17T06:59:47.976Z,58.36
2018-04-17T07:00:53.751Z,57.33
2018-04-17T07:02:00.283Z,55.96
2018-04-17T07:03:06.089Z,54.97
2018-04-17T07:04:11.857Z,53.85
2018-04-17T07:05:17.654Z,52.19
2018-04-17T07:06:23.616Z,50.86
2018-04-17T07:07:29.379Z,49.50
2018-04-17T07:08:35.184Z,48.75
2018-04-17T07:09:41.048Z,47.72
2018-04-17T07:10:46.812Z,46.94
2018-04-17T07:11:52.583Z,46.06
2018-04-17T07:12:58.355Z,44.79
2018-04-17T07:14:05.368Z,43.77
2018-04-17T07:15:10.988Z,42.11
2018-04-17T07:16:17.444Z,41.75
2018-04-17T07:17:23.659Z,41.30
2018-04-17T07:18:30.211Z,41.49
2018-04-17T07:19:36.007Z,41.32
2018-04-17T07:20:42.593Z,40.70
2018-04-17T07:21:48.377Z,40.52
2018-04-17T07:22:54.711Z,40.35
2018-04-17T07:24:00.712Z,40.01
2018-04-17T07:25:06.501Z,38.75
2018-04-17T07:26:12.502Z,38.28
2018-04-17T07:27:18.266Z,38.24
2018-04-17T07:28:23.714Z,38.01
2018-04-17T07:29:29.502Z,37.69
2018-04-17T07:30:35.494Z,37.46
2018-04-17T07:31:41.267Z,37.25
2018-04-17T07:32:47.811Z,37.32
2018-04-17T07:33:55.140Z,37.97
2018-04-17T07:35:01.057Z,38.16
2018-04-17T07:36:07.102Z,37.79
2018-04-17T07:37:12.875Z,37.57
2018-04-17T07:38:18.663Z,37.01
2018-04-17T07:39:24.434Z,36.72
2018-04-17T07:40:31.011Z,36.79
2018-04-17T07:41:36.986Z,37.03
2018-04-17T07:42:42.752Z,37.09
2018-04-17T07:43:48.532Z,36.68
2018-04-17T07:44:55.068Z,36.54
2018-04-17T07:46:01.067Z,36.18
2018-04-17T07:47:30.934Z,36.00
2018-04-17T07:48:50.377Z,35.66
2018-04-17T07:49:56.194Z,35.76
2018-04-17T07:51:01.964Z,35.97
2018-04-17T07:52:07.737Z,35.78
2018-04-17T07:53:14.302Z,35.58
2018-04-17T07:54:20.836Z,35.66
2018-04-17T07:55:26.617Z,35.53
2018-04-17T07:56:32.393Z,35.50
2018-04-17T07:57:38.171Z,35.30
2018-04-17T07:58:44.788Z,34.97
2018-04-17T07:59:50.558Z,34.97
2018-04-17T08:00:57.834Z,35.27
2018-04-17T08:02:03.621Z,35.49
2018-04-17T08:03:09.438Z,35.13
2018-04-17T08:04:15.255Z,34.72
2018-04-17T08:05:21.039Z,34.54
2018-04-17T08:06:26.806Z,34.32
2018-04-17T08:07:32.583Z,34.10
2018-04-17T08:08:38.360Z,33.73
2018-04-17T08:09:44.155Z,33.17
2018-04-17T08:10:49.934Z,31.91
2018-04-17T08:11:56.521Z,31.04
2018-04-17T08:13:02.455Z,30.73
2018-04-17T08:14:08.308Z,30.16
2018-04-17T08:15:14.115Z,29.62
2018-04-17T08:16:20.660Z,29.86
2018-04-17T08:17:26.426Z,30.02
2018-04-17T08:18:32.644Z,30.46
2018-04-17T08:19:38.421Z,30.50
2018-04-17T08:20:44.988Z,30.57
2018-04-17T08:21:51.535Z,30.60
2018-04-17T08:22:58.130Z,30.54
2018-04-17T08:24:03.899Z,30.02
2018-04-17T08:25:09.717Z,29.70
2018-04-17T08:26:15.508Z,28.62
2018-04-17T08:27:21.276Z,28.18
2018-04-17T08:28:27.822Z,27.95
2018-04-17T08:29:34.381Z,27.87
2018-04-17T08:30:40.923Z,27.76
2018-04-17T08:31:46.723Z,27.63
2018-04-17T08:32:52.494Z,27.36
2018-04-17T08:33:58.280Z,27.08
2018-04-17T08:35:04.824Z,26.49
2018-04-17T08:36:10.609Z,25.88
2018-04-17T08:37:16.396Z,25.36
2018-04-17T08:38:22.186Z,25.01
2018-04-17T08:39:27.963Z,25.60
2018-04-17T08:40:33.732Z,25.82
2018-04-17T08:41:39.512Z,26.09
2018-04-17T08:42:45.379Z,26.39
2018-04-17T08:43:51.309Z,26.37
2018-04-17T08:44:57.080Z,26.07
2018-04-17T08:46:02.857Z,25.50
2018-04-17T08:47:09.413Z,25.27
2018-04-17T08:48:15.194Z,25.06
2018-04-17T08:49:20.957Z,24.01
2018-04-17T08:50:26.707Z,24.26
2018-04-17T08:51:32.680Z,24.41
2018-04-17T08:52:38.452Z,24.83
2018-04-17T08:53:44.266Z,25.02
2018-04-17T08:54:50.057Z,25.11
2018-04-17T08:55:55.812Z,25.17
2018-04-17T08:57:01.591Z,25.52
2018-04-17T08:58:07.360Z,25.18
2018-04-17T08:59:13.910Z,25.00
2018-04-17T09:00:20.498Z,24.53
2018-04-17T09:01:26.262Z,23.82
2018-04-17T09:02:32.081Z,23.57
2018-04-17T09:03:37.834Z,23.60
2018-04-17T09:04:43.669Z,23.87
2018-04-17T09:05:50.382Z,24.35
2018-04-17T09:06:55.901Z,25.11
2018-04-17T09:08:01.663Z,25.03
2018-04-17T09:09:06.528Z,25.05
2018-04-17T09:10:12.316Z,25.13
2018-04-17T09:11:18.093Z,25.06
2018-04-17T09:12:24.404Z,24.26
2018-04-17T09:13:30.220Z,23.52
2018-04-17T09:14:35.963Z,23.45
2018-04-17T09:15:41.755Z,23.44
2018-04-17T09:16:47.503Z,23.67
2018-04-17T09:17:53.578Z,24.24
2018-04-17T09:18:59.328Z,24.84
2018-04-17T09:20:05.330Z,25.08
2018-04-17T09:21:11.428Z,25.01
2018-04-17T09:22:17.182Z,24.82
2018-04-17T09:23:22.709Z,24.04
2018-04-17T09:24:28.454Z,23.52
2018-04-17T09:25:34.215Z,23.34
2018-04-17T09:26:40.003Z,22.85
2018-04-17T09:27:46.524Z,22.74
2018-04-17T09:28:52.262Z,22.69
2018-04-17T09:29:58.341Z,22.58
2018-04-17T09:31:04.091Z,22.07
2018-04-17T09:32:09.889Z,21.51
2018-04-17T09:33:15.726Z,20.86
2018-04-17T09:34:21.632Z,20.86
2018-04-17T09:35:28.151Z,21.27
2018-04-17T09:36:33.907Z,21.52
2018-04-17T09:37:39.683Z,22.00
2018-04-17T09:38:45.444Z,22.44
2018-04-17T09:39:51.043Z,22.52
2018-04-17T09:40:57.567Z,21.78
2018-04-17T09:42:03.323Z,21.90
2018-04-17T09:43:09.108Z,22.34
2018-04-17T09:44:14.950Z,22.75
2018-04-17T09:45:21.511Z,23.03
2018-04-17T09:46:27.271Z,22.96
2018-04-17T09:47:33.295Z,22.68
2018-04-17T09:48:40.338Z,22.08
2018-04-17T09:49:46.080Z,22.17
2018-04-17T09:50:51.841Z,21.45
2018-04-17T09:51:58.369Z,21.22
2018-04-17T09:53:04.110Z,21.69
2018-04-17T09:54:09.884Z,22.29
2018-04-17T09:55:16.399Z,23.13
2018-04-17T09:56:22.176Z,23.88
2018-04-17T09:57:27.595Z,24.08
2018-04-17T09:58:34.161Z,24.25
2018-04-17T09:59:39.696Z,24.46
2018-04-17T10:00:50.738Z,24.58
2018-04-17T10:01:56.522Z,24.83
2018-04-17T10:03:03.050Z,24.95
2018-04-17T10:04:08.807Z,25.05
2018-04-17T10:05:14.600Z,25.41
2018-04-17T10:06:20.364Z,25.27
2018-04-17T10:07:26.164Z,25.09
2018-04-17T10:08:31.921Z,25.13
2018-04-17T10:09:37.687Z,25.30
2018-04-17T10:10:43.480Z,25.59
2018-04-17T10:11:50.223Z,25.78
2018-04-17T10:12:56.000Z,26.07
2018-04-17T10:14:01.754Z,26.25
2018-04-17T10:15:07.495Z,26.22
2018-04-17T10:16:13.292Z,26.52
2018-04-17T10:17:19.816Z,26.63
2018-04-17T10:18:25.578Z,27.03
2018-04-17T10:19:31.330Z,27.24
2018-04-17T10:20:37.087Z,27.57
2018-04-17T10:21:43.398Z,27.78
2018-04-17T10:22:49.166Z,27.95
2018-04-17T10:23:54.947Z,28.00
2018-04-17T10:25:00.711Z,28.41
2018-04-17T10:26:06.466Z,28.47
2018-04-17T10:27:12.030Z,29.01
2018-04-17T10:28:17.804Z,29.68
2018-04-17T10:29:23.568Z,30.04
2018-04-17T10:30:29.335Z,30.16
2018-04-17T10:31:34.868Z,30.19
2018-04-17T10:32:40.663Z,30.22
2018-04-17T10:33:46.416Z,30.24
2018-04-17T10:34:52.284Z,29.99
2018-04-17T10:35:58.051Z,30.23
2018-04-17T10:37:03.834Z,30.55
2018-04-17T10:38:09.630Z,31.08
2018-04-17T10:39:15.398Z,31.27
2018-04-17T10:40:21.699Z,31.48
2018-04-17T10:41:27.475Z,31.61
2018-04-17T10:42:33.370Z,32.07
2018-04-17T10:43:39.171Z,32.37
2018-04-17T10:44:44.935Z,32.90
2018-04-17T10:45:51.504Z,33.21
2018-04-17T10:46:57.275Z,33.38
2018-04-17T10:48:03.051Z,33.71
2018-04-17T10:49:08.847Z,33.77
2018-04-17T10:50:14.619Z,34.02
2018-04-17T10:51:21.160Z,34.24
2018-04-17T10:52:26.964Z,34.51
2018-04-17T10:53:32.816Z,34.62
2018-04-17T10:54:38.611Z,34.64
2018-04-17T10:55:45.157Z,35.20
2018-04-17T10:56:50.928Z,35.11
2018-04-17T10:57:56.714Z,35.15
2018-04-17T10:59:02.476Z,35.11
2018-04-17T11:00:08.040Z,35.24
2018-04-17T11:01:13.806Z,35.18
2018-04-17T11:02:20.343Z,35.21
2018-04-17T11:03:26.111Z,35.50
2018-04-17T11:04:32.639Z,35.81
2018-04-17T11:05:38.431Z,36.17
2018-04-17T11:06:44.198Z,36.22
2018-04-17T11:07:49.988Z,36.41
2018-04-17T11:08:55.854Z,36.53
2018-04-17T11:10:01.611Z,36.59
2018-04-17T11:11:07.396Z,36.72
2018-04-17T11:12:12.977Z,36.75
2018-04-17T11:13:19.598Z,36.93
2018-04-17T11:14:25.368Z,36.81
2018-04-17T11:15:31.142Z,36.79
2018-04-17T11:16:36.951Z,37.07
2018-04-17T11:17:43.483Z,37.35
2018-04-17T11:18:49.253Z,37.79
2018-04-17T11:19:55.781Z,38.06
2018-04-17T11:21:01.547Z,37.89
2018-04-17T11:22:08.123Z,37.63
2018-04-17T11:23:13.959Z,37.29
2018-04-17T11:24:19.887Z,37.30
2018-04-17T11:25:26.419Z,37.27
2018-04-17T11:26:32.190Z,37.39
2018-04-17T11:27:38.754Z,37.86
2018-04-17T11:28:45.299Z,38.07
2018-04-17T11:29:50.880Z,38.20
2018-04-17T11:30:56.661Z,38.03
2018-04-17T11:32:02.439Z,38.03
2018-04-17T11:33:09.024Z,38.01
2018-04-17T11:34:14.802Z,38.30
2018-04-17T11:35:20.659Z,38.50
2018-04-17T11:36:26.432Z,38.88
2018-04-17T11:37:32.968Z,38.81
2018-04-17T11:38:38.775Z,39.14
2018-04-17T11:39:44.230Z,39.15
2018-04-17T11:40:49.999Z,39.00
2018-04-17T11:41:56.558Z,38.87
2018-04-17T11:43:03.130Z,38.79
2018-04-17T11:44:09.102Z,38.76
2018-04-17T11:45:14.906Z,38.73
2018-04-17T11:46:20.665Z,38.76
2018-04-17T11:47:26.446Z,39.27
2018-04-17T11:48:32.240Z,39.52
2018-04-17T11:49:38.791Z,39.48
2018-04-17T11:50:45.130Z,39.51
2018-04-17T11:51:50.907Z,39.37
2018-04-17T11:52:57.439Z,39.38
2018-04-17T11:54:03.227Z,39.46
2018-04-17T11:55:09.372Z,39.54
2018-04-17T11:56:15.143Z,39.54
2018-04-17T11:57:20.913Z,39.50
2018-04-17T11:58:26.682Z,39.70
2018-04-17T11:59:32.234Z,39.59
2018-04-17T12:00:38.031Z,39.71
2018-04-17T12:01:44.847Z,39.80
2018-04-17T12:02:50.629Z,39.87
2018-04-17T12:03:56.176Z,39.86
2018-04-17T12:05:02.755Z,39.77
2018-04-17T12:06:09.315Z,39.62
2018-04-17T12:07:15.858Z,39.60
2018-04-17T12:08:21.399Z,39.51
2018-04-17T12:09:27.236Z,39.68
2018-04-17T12:10:32.784Z,39.62
2018-04-17T12:11:38.577Z,39.48
2018-04-17T12:12:44.123Z,39.16
2018-04-17T12:13:49.669Z,38.99
2018-04-17T12:14:55.442Z,38.94
2018-04-17T12:16:01.751Z,38.93
2018-04-17T12:17:07.544Z,39.00
2018-04-17T12:18:14.139Z,39.09
2018-04-17T12:19:20.140Z,39.12
2018-04-17T12:20:26.076Z,39.36
2018-04-17T12:21:32.001Z,39.87
2018-04-17T12:22:37.789Z,40.26
2018-04-17T12:23:44.348Z,40.78
2018-04-17T12:24:50.900Z,41.11
2018-04-17T12:25:57.446Z,41.27
2018-04-17T12:27:03.243Z,41.21
2018-04-17T12:28:09.050Z,41.22
2018-04-17T12:29:15.584Z,41.40
2018-04-17T12:30:22.131Z,41.25
2018-04-17T12:31:27.912Z,41.40
2018-04-17T12:32:34.526Z,41.40
2018-04-17T12:33:40.405Z,41.38
2018-04-17T12:34:46.188Z,41.14
2018-04-17T12:35:51.955Z,41.32
2018-04-17T12:36:57.733Z,41.82
2018-04-17T12:38:03.543Z,42.13
2018-04-17T12:39:09.328Z,42.14
2018-04-17T12:40:15.869Z,42.17
2018-04-17T12:41:21.679Z,42.22
2018-04-17T12:42:27.449Z,42.28
2018-04-17T12:43:33.235Z,42.18
2018-04-17T12:44:39.024Z,42.50
2018-04-17T12:45:44.801Z,42.78
2018-04-17T12:46:51.336Z,43.08
2018-04-17T12:47:57.117Z,43.06
2018-04-17T12:49:02.908Z,43.02
2018-04-17T12:50:08.823Z,43.33
2018-04-17T12:51:14.594Z,43.72
2018-04-17T12:52:20.467Z,43.97
2018-04-17T12:53:27.014Z,44.19
2018-04-17T12:54:32.784Z,44.41
2018-04-17T12:55:39.367Z,44.57
2018-04-17T12:56:45.142Z,44.55
2018-04-17T12:57:50.915Z,44.58
2018-04-17T12:58:57.461Z,44.45
2018-04-17T13:00:04.234Z,44.28
2018-04-17T13:01:10.031Z,44.24
2018-04-17T13:02:15.807Z,44.29
2018-04-17T13:03:21.585Z,44.11
2018-04-17T13:04:27.363Z,43.57
2018-04-17T13:05:33.133Z,43.64
2018-04-17T13:06:38.932Z,43.84
2018-04-17T13:07:44.750Z,43.99
2018-04-17T13:08:50.698Z,44.03
2018-04-17T13:09:56.917Z,44.15
2018-04-17T13:11:02.696Z,44.16
2018-04-17T13:12:08.301Z,44.13
2018-04-17T13:13:14.068Z,44.07
2018-04-17T13:14:20.859Z,43.92
2018-04-17T13:15:26.631Z,43.92
2018-04-17T13:16:32.416Z,43.82
2018-04-17T13:17:38.209Z,43.76
2018-04-17T13:18:43.997Z,43.65
2018-04-17T13:19:50.570Z,43.67
2018-04-17T13:20:57.106Z,43.55
2018-04-17T13:23:22.022Z,42.96
2018-04-17T13:24:27.565Z,42.88
2018-04-17T13:25:33.344Z,42.86
2018-04-17T13:26:38.883Z,42.61
2018-04-17T13:27:44.690Z,42.77
2018-04-17T13:28:50.485Z,42.91
2018-04-17T13:29:56.252Z,42.97
2018-04-17T13:31:02.787Z,42.54
2018-04-17T13:32:08.565Z,42.37
2018-04-17T13:33:15.099Z,42.29
2018-04-17T13:34:20.967Z,42.38
2018-04-17T13:35:27.511Z,42.36
2018-04-17T13:36:32.950Z,42.23
2018-04-17T13:37:39.517Z,41.92
2018-04-17T13:38:46.309Z,41.97
2018-04-17T13:39:52.140Z,42.09
2018-04-17T13:40:57.683Z,42.58
2018-04-17T13:42:03.612Z,43.06
2018-04-17T13:43:09.432Z,42.79
2018-04-17T13:44:15.207Z,42.70
2018-04-17T13:45:21.042Z,42.80
2018-04-17T13:46:27.938Z,42.96
2018-04-17T13:47:33.723Z,42.91
2018-04-17T13:48:39.267Z,42.80
2018-04-17T13:49:45.139Z,42.83
2018-04-17T13:50:50.948Z,42.91
2018-04-17T13:51:57.483Z,42.85
2018-04-17T13:53:03.415Z,42.95
2018-04-17T13:54:09.203Z,42.84
2018-04-17T13:55:15.174Z,42.96
2018-04-17T13:56:20.979Z,42.86
2018-04-17T13:57:26.757Z,43.21
2018-04-17T13:58:32.536Z,43.38
2018-04-17T13:59:38.313Z,43.18
2018-04-17T14:00:44.087Z,43.62
2018-04-17T14:01:49.899Z,43.92
2018-04-17T14:02:55.693Z,43.87
2018-04-17T14:04:01.472Z,44.14
2018-04-17T14:05:07.258Z,44.18
2018-04-17T14:06:13.027Z,44.30
2018-04-17T14:07:18.819Z,44.54
2018-04-17T14:08:25.359Z,44.36
2018-04-17T14:09:31.167Z,44.06
2018-04-17T14:10:36.936Z,43.67
2018-04-17T14:11:42.708Z,42.77
2018-04-17T14:12:49.279Z,42.96
2018-04-17T14:13:55.818Z,42.89
2018-04-17T14:15:01.595Z,42.81
2018-04-17T14:16:07.380Z,42.68
2018-04-17T14:17:13.202Z,42.59